首页
METAR-TAF:

METAR-TAF

机场 :

雅蒲島國際機場

雅蒲島, 密克罗尼西亚群岛

纬度: 09-29N, 经度: 138-05E, 海拔: 28米

当前天气观测

该预报发布于23分钟前的01:50 UTC
风速4节,风向多变
温度 29°C
湿度 84%
气压 1010 hPa
能見度: 19.3公里
少量云层高于1600英尺, 积雨云.
散云层高于13000英尺
多云层高于30000英尺

METAR: PTYA 200150Z VRB04KT 12SM FEW016CB SCT130 BKN300 29/26 A2982 RMK CB W SLP098 T02940264

时间: 12:13 (02:13 UTC)

预报

该预报发布于2小时和39分钟前的23:34 UTC
预报有效从20日的 00点(UTC)到 20日的 24点(UTC)
风速11节,风向
能見度: 10公里
散云层高于1600英尺
多云层高于12000英尺
附近有阵雨
短暂存在
从 20日的 02点(UTC)到 20日的 06点(UTC)
多云层高于1600英尺
小阵雨,

TAF: PTYA 192334Z 2000/2024 10011KT P6SM VCSH SCT016 BKN120 TEMPO 2002/2006 -SHRA BKN016

超过4000个机场的气象观测和天气预报(METAR&TAF报告)。

可查询的气象台以黄色和红色小点在地图上表示。

将鼠标移到小点上方,可查看气象台名称。

然后点击查看天气观测和预报。

如需切换地图:点击带黑十字的绿色按钮放大地图;点击带横线的绿色按钮缩小地图;或者点击绿色箭头查看邻近地区的地图。


METAR-TAF: